Time;durP1;ratioP1;P1;durP2;ratioP2;P2;SDS_P1;SDS_P2;PMS_P1;PMS_P2;Temp;Humidity;BMP_temperature;BMP_pressure;BME280_temperature;BME280_humidity;BME280_pressure;Samples;Min_cycle;Max_cycle;Signal;HPM_P1;HPM_P2
2023/06/08 00:02:08;;;;;;;10.85;4.95;;;15.80;63.00;;;;;;4964490;28;20294;-78
2023/06/08 00:04:35;;;;;;;14.43;5.10;;;15.80;63.10;;;;;;4968192;28;20536;-79
2023/06/08 00:07:04;;;;;;;13.27;5.00;;;15.70;63.20;;;;;;4967932;28;20077;-79
2023/06/08 00:09:31;;;;;;;11.13;4.72;;;15.70;63.30;;;;;;4968485;28;20066;-78
2023/06/08 00:11:58;;;;;;;13.67;5.63;;;15.70;63.40;;;;;;4969401;28;20411;-79
2023/06/08 00:14:25;;;;;;;11.45;4.75;;;15.60;63.40;;;;;;4968330;28;20378;-79
2023/06/08 00:16:53;;;;;;;10.55;4.68;;;15.60;63.30;;;;;;4970344;28;20564;-79
2023/06/08 00:19:22;;;;;;;11.05;4.53;;;15.60;63.20;;;;;;4968442;28;20091;-79
2023/06/08 00:21:49;;;;;;;11.57;4.63;;;15.60;63.30;;;;;;4982121;28;20608;-79
2023/06/08 00:24:19;;;;;;;12.20;4.90;;;15.60;63.50;;;;;;4965378;28;20473;-78
2023/06/08 00:26:46;;;;;;;12.10;5.15;;;15.60;63.70;;;;;;4959921;28;20263;-78
2023/06/08 00:29:16;;;;;;;10.68;4.53;;;15.60;63.70;;;;;;4965398;28;20055;-78
2023/06/08 00:31:43;;;;;;;9.95;4.03;;;15.60;63.70;;;;;;4984766;28;20051;-78
2023/06/08 00:34:12;;;;;;;9.80;3.95;;;15.60;63.50;;;;;;4968408;28;20178;-79
2023/06/08 00:36:38;;;;;;;21.07;5.00;;;15.60;63.70;;;;;;4966600;28;20065;-79
2023/06/08 00:39:05;;;;;;;9.50;4.10;;;15.60;63.60;;;;;;4958336;28;20287;-79
2023/06/08 00:41:32;;;;;;;9.55;3.90;;;15.60;63.60;;;;;;4966222;28;20066;-79
2023/06/08 00:44:01;;;;;;;8.68;3.92;;;15.50;64.00;;;;;;4947635;28;20048;-79
2023/06/08 00:46:30;;;;;;;13.77;4.50;;;15.50;64.00;;;;;;4966537;28;20135;-78
2023/06/08 00:48:58;;;;;;;9.53;4.43;;;15.40;64.20;;;;;;4954213;28;20139;-79
2023/06/08 00:51:30;;;;;;;9.60;3.88;;;15.30;64.30;;;;;;4933090;28;20319;-79
2023/06/08 00:53:57;;;;;;;9.85;4.05;;;15.30;64.40;;;;;;4966964;28;20056;-79
2023/06/08 00:56:27;;;;;;;9.48;4.28;;;15.30;64.30;;;;;;4948597;28;20063;-79
2023/06/08 00:58:56;;;;;;;10.88;4.80;;;15.30;64.30;;;;;;4969460;28;20047;-79
2023/06/08 01:01:25;;;;;;;10.17;4.33;;;15.30;64.30;;;;;;4981997;28;20071;-79
2023/06/08 01:03:55;;;;;;;9.48;4.53;;;15.30;64.30;;;;;;4950192;28;20264;-78
2023/06/08 01:06:22;;;;;;;13.10;4.78;;;15.30;64.30;;;;;;4965818;28;20430;-78
2023/06/08 01:08:59;;;;;;;13.07;4.60;;;15.30;64.30;;;;;;4964812;28;20570;-78
2023/06/08 01:11:37;;;;;;;11.95;4.72;;;15.40;64.30;;;;;;4966615;28;20070;-78
2023/06/08 01:14:18;;;;;;;9.83;4.23;;;15.30;64.10;;;;;;4963789;28;20051;-79
2023/06/08 01:16:50;;;;;;;9.85;4.45;;;15.30;64.10;;;;;;4941965;28;20262;-79
2023/06/08 01:19:28;;;;;;;10.00;4.57;;;15.30;64.40;;;;;;4950296;28;20753;-78
2023/06/08 01:22:10;;;;;;;14.77;4.68;;;15.30;64.40;;;;;;4965377;28;20142;-78
2023/06/08 01:24:49;;;;;;;13.73;4.32;;;15.20;64.60;;;;;;4963006;28;20043;-79
2023/06/08 01:27:17;;;;;;;12.03;4.77;;;15.20;64.70;;;;;;4943295;28;20054;-79
2023/06/08 01:29:44;;;;;;;10.93;4.47;;;15.10;64.70;;;;;;4943134;28;20248;-79
2023/06/08 01:32:11;;;;;;;11.00;4.47;;;15.10;64.80;;;;;;4967567;28;20055;-79
2023/06/08 01:34:39;;;;;;;8.20;4.53;;;15.10;64.90;;;;;;4955769;28;20544;-78
2023/06/08 01:37:15;;;;;;;10.25;4.63;;;15.10;65.00;;;;;;4970509;28;20118;-79
2023/06/08 01:39:52;;;;;;;13.27;5.27;;;15.00;65.20;;;;;;4976320;28;20051;-79
2023/06/08 01:42:21;;;;;;;13.52;5.15;;;15.00;65.20;;;;;;4966995;28;20794;-79
2023/06/08 01:44:56;;;;;;;11.75;5.43;;;15.00;65.30;;;;;;4946015;28;20098;-79
2023/06/08 01:47:25;;;;;;;13.05;5.38;;;15.00;65.30;;;;;;4932251;28;20048;-79
2023/06/08 01:49:55;;;;;;;11.40;5.35;;;15.00;65.40;;;;;;4954409;28;20130;-79
2023/06/08 01:52:22;;;;;;;12.73;5.67;;;15.00;65.50;;;;;;4960661;28;20056;-79
2023/06/08 01:54:50;;;;;;;12.55;5.63;;;15.00;65.40;;;;;;4949912;28;20343;-79
2023/06/08 01:57:17;;;;;;;13.32;5.63;;;15.00;65.50;;;;;;4952801;28;20059;-79
2023/06/08 01:59:44;;;;;;;16.85;6.65;;;15.00;65.70;;;;;;4961069;28;20078;-78
2023/06/08 02:02:12;;;;;;;14.35;5.90;;;14.90;65.80;;;;;;4963621;28;20487;-79
2023/06/08 02:04:39;;;;;;;15.40;6.20;;;14.90;65.90;;;;;;4935403;28;20147;-79
2023/06/08 02:07:06;;;;;;;14.07;5.78;;;14.90;66.00;;;;;;4964653;28;20378;-79
2023/06/08 02:09:33;;;;;;;17.92;7.05;;;14.90;66.10;;;;;;4954026;28;20482;-79
2023/06/08 02:12:07;;;;;;;16.20;6.70;;;14.80;66.20;;;;;;4967203;28;20047;-79
2023/06/08 02:14:34;;;;;;;13.93;6.97;;;14.80;66.40;;;;;;4969828;28;20063;-79
2023/06/08 02:17:03;;;;;;;14.93;7.13;;;14.80;66.30;;;;;;4953306;28;20053;-79
2023/06/08 02:19:31;;;;;;;20.20;7.93;;;14.80;66.30;;;;;;4954262;28;20260;-79
2023/06/08 02:21:59;;;;;;;17.33;7.90;;;14.80;66.50;;;;;;4953694;28;20729;-79
2023/06/08 02:24:26;;;;;;;14.82;7.53;;;14.70;66.60;;;;;;4954247;28;20086;-79
2023/06/08 02:26:54;;;;;;;17.20;8.23;;;14.70;66.70;;;;;;4954462;28;20059;-78
2023/06/08 02:29:23;;;;;;;15.30;7.83;;;14.60;66.70;;;;;;4971567;28;20048;-79
2023/06/08 02:31:50;;;;;;;17.80;7.78;;;14.60;66.90;;;;;;4969818;28;20774;-79
2023/06/08 02:34:17;;;;;;;15.95;7.40;;;14.60;66.90;;;;;;4958073;28;20473;-79
2023/06/08 02:36:48;;;;;;;18.05;7.40;;;14.60;67.00;;;;;;4952227;28;20051;-78
2023/06/08 02:39:15;;;;;;;16.98;7.60;;;14.50;67.20;;;;;;4966615;28;20134;-79
2023/06/08 02:41:43;;;;;;;15.30;6.53;;;14.50;67.10;;;;;;4957714;28;20672;-79
2023/06/08 02:44:10;;;;;;;15.02;6.82;;;14.50;67.20;;;;;;4934593;28;20420;-79
2023/06/08 02:46:39;;;;;;;16.10;6.93;;;14.50;67.20;;;;;;4963069;28;20398;-79
2023/06/08 02:49:07;;;;;;;13.73;7.03;;;14.40;67.50;;;;;;4954405;28;20044;-79
2023/06/08 02:51:35;;;;;;;17.05;7.07;;;14.40;67.40;;;;;;4934546;28;20056;-79
2023/06/08 02:54:02;;;;;;;15.23;6.50;;;14.40;67.30;;;;;;4950382;28;20048;-78
2023/06/08 02:56:29;;;;;;;15.45;6.85;;;14.40;67.30;;;;;;4956357;28;20697;-79
2023/06/08 02:58:56;;;;;;;15.38;7.30;;;14.40;67.20;;;;;;4950233;28;20052;-78
2023/06/08 03:01:25;;;;;;;14.55;6.72;;;14.40;67.40;;;;;;4985345;28;20062;-79
2023/06/08 03:03:58;;;;;;;15.25;6.68;;;14.40;67.30;;;;;;4955719;28;20152;-79
2023/06/08 03:06:33;;;;;;;14.97;7.33;;;14.40;67.30;;;;;;4956227;28;20055;-78
2023/06/08 03:09:00;;;;;;;16.23;7.72;;;14.40;67.20;;;;;;4951291;28;20264;-78
2023/06/08 03:11:31;;;;;;;14.45;7.00;;;14.40;67.20;;;;;;4948665;28;20664;-79
2023/06/08 03:13:58;;;;;;;16.83;7.53;;;14.40;67.20;;;;;;4965534;28;20067;-79
2023/06/08 03:16:26;;;;;;;16.67;7.75;;;14.40;67.30;;;;;;4951858;28;20174;-78
2023/06/08 03:18:56;;;;;;;13.13;7.10;;;14.40;67.20;;;;;;4948885;28;20134;-79
2023/06/08 03:21:28;;;;;;;15.75;6.30;;;14.40;67.20;;;;;;4949156;28;20291;-79
2023/06/08 03:23:56;;;;;;;16.55;7.13;;;14.40;67.20;;;;;;4967830;28;20056;-79
2023/06/08 03:26:24;;;;;;;15.52;7.68;;;14.30;67.10;;;;;;4951030;28;20572;-79
2023/06/08 03:28:52;;;;;;;13.48;7.32;;;14.40;67.20;;;;;;4959773;28;20047;-80
2023/06/08 03:31:20;;;;;;;16.70;7.70;;;14.40;67.10;;;;;;4950560;28;20047;-78
2023/06/08 03:33:48;;;;;;;17.45;7.40;;;14.40;66.90;;;;;;4951435;28;20346;-79
2023/06/08 03:36:15;;;;;;;15.52;7.55;;;14.40;66.80;;;;;;4967499;28;20055;-79
2023/06/08 03:38:46;;;;;;;13.63;7.18;;;14.40;66.90;;;;;;4949001;28;20106;-79
2023/06/08 03:41:16;;;;;;;15.52;7.15;;;14.40;66.90;;;;;;4965766;28;20134;-79
2023/06/08 03:43:46;;;;;;;13.13;6.80;;;14.30;66.80;;;;;;4967461;28;20062;-79
2023/06/08 03:46:14;;;;;;;15.50;6.70;;;14.30;66.90;;;;;;4983598;28;20270;-79
2023/06/08 03:48:41;;;;;;;13.95;7.40;;;14.30;67.10;;;;;;4964043;28;20614;-79
2023/06/08 03:51:09;;;;;;;15.38;6.68;;;14.30;67.10;;;;;;4949985;28;20130;-79
2023/06/08 03:53:37;;;;;;;15.52;6.78;;;14.20;67.20;;;;;;4976183;28;20062;-79
2023/06/08 03:56:06;;;;;;;15.87;7.10;;;14.20;67.10;;;;;;4947955;28;20055;-79
2023/06/08 03:58:36;;;;;;;13.93;6.35;;;14.20;67.40;;;;;;4959335;28;20279;-80
2023/06/08 04:01:05;;;;;;;16.42;6.78;;;14.10;67.40;;;;;;4963121;28;20063;-79
2023/06/08 04:03:31;;;;;;;14.85;6.95;;;14.10;67.40;;;;;;4952190;28;20058;-79
2023/06/08 04:05:59;;;;;;;15.13;7.22;;;14.10;67.40;;;;;;4948216;28;20051;-78
2023/06/08 04:08:26;;;;;;;12.80;6.70;;;14.10;67.50;;;;;;4979563;28;20496;-79
2023/06/08 04:10:53;;;;;;;13.05;6.85;;;14.10;67.60;;;;;;4949772;28;20271;-79
2023/06/08 04:13:21;;;;;;;13.50;6.85;;;14.10;67.60;;;;;;4973972;28;20051;-79
2023/06/08 04:15:49;;;;;;;12.60;6.63;;;14.10;67.70;;;;;;4966257;28;20102;-79
2023/06/08 04:18:17;;;;;;;14.02;6.85;;;14.10;67.70;;;;;;4978144;28;20060;-78
2023/06/08 04:20:45;;;;;;;14.27;7.27;;;14.10;67.60;;;;;;4948009;28;20047;-80
2023/06/08 04:23:15;;;;;;;16.10;7.88;;;14.10;67.70;;;;;;4949396;28;20283;-78
2023/06/08 04:25:42;;;;;;;16.65;7.60;;;14.10;67.70;;;;;;4963655;28;20540;-79
2023/06/08 04:28:09;;;;;;;13.80;7.38;;;14.10;67.70;;;;;;4973026;28;20126;-79
2023/06/08 04:30:38;;;;;;;18.85;8.10;;;14.10;67.80;;;;;;4951897;28;20057;-79
2023/06/08 04:33:05;;;;;;;15.77;7.97;;;14.00;67.90;;;;;;4955740;28;20047;-79
2023/06/08 04:35:33;;;;;;;17.67;8.23;;;14.00;68.00;;;;;;4950614;28;20287;-79
2023/06/08 04:38:01;;;;;;;14.80;7.88;;;14.00;68.00;;;;;;4949356;28;20070;-79
2023/06/08 04:40:29;;;;;;;17.88;7.88;;;14.00;68.20;;;;;;4946666;28;20054;-79
2023/06/08 04:42:59;;;;;;;18.75;8.88;;;13.90;68.20;;;;;;4951891;28;20052;-79
2023/06/08 04:45:26;;;;;;;16.63;7.90;;;13.90;68.20;;;;;;4951143;28;20051;-79
2023/06/08 04:47:57;;;;;;;14.40;8.30;;;14.00;68.20;;;;;;4966420;28;20248;-79
2023/06/08 04:50:27;;;;;;;19.73;7.85;;;14.00;68.20;;;;;;4967225;28;20138;-79
2023/06/08 04:52:55;;;;;;;16.35;8.48;;;14.00;68.30;;;;;;4963395;28;20055;-79
2023/06/08 04:55:24;;;;;;;15.05;7.10;;;14.00;68.40;;;;;;4950782;28;20118;-79
2023/06/08 04:57:51;;;;;;;15.40;7.67;;;14.00;68.30;;;;;;4979369;28;20134;-79
2023/06/08 05:00:19;;;;;;;14.77;6.85;;;14.00;68.50;;;;;;4960200;28;20367;-79
2023/06/08 05:02:46;;;;;;;16.25;7.50;;;13.90;68.60;;;;;;4951504;28;20051;-78
2023/06/08 05:05:15;;;;;;;15.52;7.78;;;13.90;68.60;;;;;;4951558;28;20098;-79
2023/06/08 05:07:43;;;;;;;17.35;7.47;;;13.90;68.70;;;;;;4944673;28;20492;-79
2023/06/08 05:10:10;;;;;;;16.13;7.47;;;13.90;68.70;;;;;;4966231;28;20145;-79
2023/06/08 05:12:37;;;;;;;15.63;7.38;;;13.90;68.90;;;;;;4963572;28;20740;-79
2023/06/08 05:15:05;;;;;;;15.95;8.20;;;13.90;68.80;;;;;;4967446;28;20059;-79
2023/06/08 05:17:32;;;;;;;15.48;7.60;;;14.00;69.00;;;;;;4966744;28;20147;-79
2023/06/08 05:20:00;;;;;;;14.55;7.75;;;14.00;68.80;;;;;;4961272;28;20052;-79
2023/06/08 05:22:28;;;;;;;17.43;7.53;;;14.00;68.90;;;;;;4958448;28;20062;-79
2023/06/08 05:24:55;;;;;;;14.98;7.43;;;14.00;68.90;;;;;;4947768;28;20343;-79
2023/06/08 05:27:22;;;;;;;14.40;7.15;;;14.00;68.90;;;;;;4949140;28;20056;-79
2023/06/08 05:29:49;;;;;;;18.05;6.90;;;14.00;69.00;;;;;;4963426;28;20104;-81
2023/06/08 05:32:17;;;;;;;15.85;7.30;;;14.00;69.00;;;;;;4960737;28;20126;-81
2023/06/08 05:34:44;;;;;;;20.77;8.07;;;13.90;69.10;;;;;;4975596;28;20066;-81
2023/06/08 05:37:11;;;;;;;15.48;6.97;;;13.90;69.20;;;;;;4973861;28;20255;-81
2023/06/08 05:39:39;;;;;;;16.45;7.20;;;13.90;69.10;;;;;;4970091;28;20134;-81
2023/06/08 05:42:07;;;;;;;13.52;6.63;;;13.90;69.40;;;;;;4969974;28;20058;-81
2023/06/08 05:44:34;;;;;;;14.52;6.65;;;13.90;69.30;;;;;;4965824;28;20065;-81
2023/06/08 05:47:02;;;;;;;13.53;6.13;;;13.90;69.40;;;;;;4970247;28;20048;-81
2023/06/08 05:49:29;;;;;;;14.25;6.32;;;13.90;69.40;;;;;;4968070;28;20349;-81
2023/06/08 05:51:56;;;;;;;14.00;6.80;;;13.90;69.20;;;;;;5003100;28;20055;-81
2023/06/08 05:54:24;;;;;;;14.52;6.88;;;14.00;69.40;;;;;;5001647;28;20581;-81
2023/06/08 05:56:52;;;;;;;16.45;6.82;;;14.00;69.10;;;;;;4976197;28;20082;-81
2023/06/08 05:59:19;;;;;;;13.27;6.23;;;14.00;69.20;;;;;;4968478;28;20063;-81
2023/06/08 06:01:47;;;;;;;12.85;6.03;;;14.10;69.30;;;;;;4970456;28;20769;-81
2023/06/08 06:04:14;;;;;;;12.70;6.38;;;14.10;69.60;;;;;;4967680;28;20055;-81
2023/06/08 06:06:41;;;;;;;12.65;5.82;;;14.10;69.60;;;;;;4966323;28;20043;-82
2023/06/08 06:09:11;;;;;;;17.88;7.20;;;14.10;69.60;;;;;;4968709;28;20059;-81
2023/06/08 06:11:41;;;;;;;16.07;7.20;;;14.10;69.80;;;;;;5000951;28;20138;-82
2023/06/08 06:14:10;;;;;;;14.05;6.53;;;14.10;69.90;;;;;;5001718;28;20343;-81
2023/06/08 06:16:37;;;;;;;11.65;6.38;;;14.10;70.00;;;;;;4966601;28;20171;-83
2023/06/08 06:19:04;;;;;;;11.65;5.90;;;14.20;70.10;;;;;;4977146;28;20911;-82
2023/06/08 06:21:32;;;;;;;11.40;5.95;;;14.20;70.30;;;;;;4981542;28;20125;-82
2023/06/08 06:23:59;;;;;;;12.23;6.17;;;14.20;70.40;;;;;;4973414;28;20138;-82
2023/06/08 06:26:26;;;;;;;10.75;5.25;;;14.30;70.50;;;;;;4966864;28;20789;-80
2023/06/08 06:28:53;;;;;;;12.38;5.95;;;14.30;70.50;;;;;;4968121;28;20057;-79
2023/06/08 06:31:21;;;;;;;11.30;5.38;;;14.30;70.40;;;;;;4961982;28;20560;-79
2023/06/08 06:33:49;;;;;;;14.15;6.22;;;14.40;70.30;;;;;;4953620;28;20058;-79
2023/06/08 06:36:16;;;;;;;10.83;5.63;;;14.40;70.20;;;;;;4972065;28;20066;-80
2023/06/08 06:39:08;;;;;;;13.10;5.88;;;14.40;70.20;;;;;;4989796;28;20297;-79
2023/06/08 06:41:35;;;;;;;11.63;5.55;;;14.50;70.10;;;;;;4969292;28;20054;-78
2023/06/08 06:44:03;;;;;;;11.75;5.25;;;14.40;70.20;;;;;;4967499;28;20048;-79
2023/06/08 06:46:31;;;;;;;17.63;7.05;;;14.50;70.10;;;;;;4967601;28;20066;-79
2023/06/08 06:48:58;;;;;;;13.27;6.37;;;14.50;70.20;;;;;;4960577;28;20126;-79
2023/06/08 06:51:26;;;;;;;11.27;5.82;;;14.50;70.20;;;;;;4968465;28;20271;-82
2023/06/08 06:53:53;;;;;;;14.88;5.57;;;14.60;70.30;;;;;;4974484;28;20051;-80
2023/06/08 06:56:20;;;;;;;17.63;6.18;;;14.60;70.30;;;;;;4973205;28;20118;-81
2023/06/08 06:58:48;;;;;;;13.73;6.32;;;14.60;70.40;;;;;;4976854;28;20110;-81
2023/06/08 07:01:15;;;;;;;13.17;6.07;;;14.70;70.40;;;;;;4979540;28;20135;-79
2023/06/08 07:03:44;;;;;;;13.68;5.38;;;14.70;70.50;;;;;;4980411;28;20383;-79
2023/06/08 07:06:11;;;;;;;13.68;6.65;;;14.70;70.40;;;;;;4967689;28;20053;-79
2023/06/08 07:08:39;;;;;;;14.98;6.60;;;14.80;70.40;;;;;;4980438;28;20054;-79
2023/06/08 07:11:06;;;;;;;11.40;6.32;;;14.90;70.50;;;;;;4976913;28;20051;-78
2023/06/08 07:13:33;;;;;;;13.53;5.90;;;14.90;70.40;;;;;;4971393;28;20059;-79
2023/06/08 07:16:03;;;;;;;16.13;6.20;;;15.00;70.20;;;;;;4967649;28;20256;-79
2023/06/08 07:18:30;;;;;;;16.13;7.15;;;15.00;70.20;;;;;;4976751;28;20813;-79
2023/06/08 07:20:59;;;;;;;15.75;6.25;;;15.00;70.00;;;;;;4968018;28;20051;-79
2023/06/08 07:23:26;;;;;;;12.75;6.43;;;15.20;70.00;;;;;;4969284;28;20134;-78
2023/06/08 07:25:53;;;;;;;13.73;6.40;;;15.20;69.70;;;;;;4988028;28;20051;-79
2023/06/08 07:28:20;;;;;;;12.60;6.38;;;15.30;69.70;;;;;;4943056;28;20290;-79
2023/06/08 07:30:47;;;;;;;14.68;6.45;;;15.40;69.60;;;;;;4971482;28;20065;-79
2023/06/08 07:33:14;;;;;;;12.68;6.10;;;15.40;69.40;;;;;;5004026;28;20142;-80
2023/06/08 07:35:41;;;;;;;12.00;5.90;;;15.50;69.30;;;;;;4973680;28;21039;-78
2023/06/08 07:38:10;;;;;;;12.70;5.43;;;15.50;69.10;;;;;;4967439;28;20784;-79
2023/06/08 07:40:37;;;;;;;11.23;6.10;;;15.50;69.10;;;;;;4969352;28;20306;-80
2023/06/08 07:43:04;;;;;;;13.88;5.15;;;15.60;69.20;;;;;;4965936;28;20070;-81
2023/06/08 07:45:31;;;;;;;11.90;5.65;;;15.60;69.10;;;;;;4961534;28;20177;-80
2023/06/08 07:47:58;;;;;;;13.70;5.05;;;15.60;69.30;;;;;;4961938;28;20142;-80
2023/06/08 07:50:26;;;;;;;10.67;5.00;;;15.80;69.30;;;;;;4966360;28;20092;-80
2023/06/08 07:52:53;;;;;;;9.88;4.63;;;15.80;69.30;;;;;;4967252;28;20254;-81
2023/06/08 07:55:22;;;;;;;22.20;6.10;;;15.80;69.10;;;;;;4962569;28;20151;-79
2023/06/08 07:57:50;;;;;;;14.23;5.82;;;15.90;69.10;;;;;;4963951;28;20059;-80
2023/06/08 08:00:19;;;;;;;12.75;5.55;;;16.00;69.10;;;;;;4976424;28;20057;-80
2023/06/08 08:02:46;;;;;;;11.47;4.60;;;16.00;69.10;;;;;;4966986;28;20057;-80
2023/06/08 08:05:13;;;;;;;11.60;4.35;;;16.10;69.00;;;;;;4951644;28;20267;-81
2023/06/08 08:07:40;;;;;;;12.15;4.53;;;16.10;68.80;;;;;;4963132;28;20043;-81
2023/06/08 08:10:08;;;;;;;11.02;5.28;;;16.20;68.60;;;;;;4965550;28;20130;-82
2023/06/08 08:12:37;;;;;;;11.25;4.72;;;16.30;68.50;;;;;;4968229;28;20057;-82
2023/06/08 08:15:05;;;;;;;9.80;4.77;;;16.40;68.30;;;;;;4997132;28;20525;-82
2023/06/08 08:17:32;;;;;;;10.63;4.07;;;16.40;68.10;;;;;;4966794;28;20283;-82
2023/06/08 08:19:59;;;;;;;10.15;4.30;;;16.40;68.00;;;;;;4981772;28;20138;-82
2023/06/08 08:22:26;;;;;;;9.18;3.90;;;16.50;67.90;;;;;;4998903;28;20557;-81
2023/06/08 08:24:53;;;;;;;10.63;4.55;;;16.60;67.60;;;;;;4972567;28;20074;-81
2023/06/08 08:27:20;;;;;;;11.13;4.00;;;16.60;67.20;;;;;;4957429;28;20059;-81
2023/06/08 08:29:48;;;;;;;11.63;4.32;;;16.60;67.10;;;;;;4969065;28;20348;-82
2023/06/08 08:32:15;;;;;;;12.55;4.07;;;16.70;67.00;;;;;;4984185;28;20063;-81
2023/06/08 08:34:43;;;;;;;9.60;3.67;;;16.70;67.00;;;;;;4978595;28;20071;-83
2023/06/08 08:37:10;;;;;;;9.73;4.25;;;16.70;66.90;;;;;;4981680;28;20074;-82
2023/06/08 08:39:37;;;;;;;11.97;3.53;;;16.80;66.90;;;;;;4986163;28;20097;-83
2023/06/08 08:42:12;;;;;;;10.05;3.80;;;16.80;66.80;;;;;;4986895;28;20295;-83
2023/06/08 08:44:41;;;;;;;11.13;4.10;;;16.90;66.60;;;;;;4971274;28;20629;-82
2023/06/08 08:47:13;;;;;;;9.85;3.67;;;16.90;66.40;;;;;;4957387;28;20062;-80
2023/06/08 08:49:43;;;;;;;10.90;3.83;;;17.00;66.30;;;;;;4969525;28;20078;-82
2023/06/08 08:52:10;;;;;;;9.77;3.80;;;17.00;66.30;;;;;;4967660;28;20051;-80
2023/06/08 08:54:38;;;;;;;10.68;4.20;;;17.00;66.20;;;;;;4973204;28;20258;-82
2023/06/08 08:57:08;;;;;;;9.10;4.18;;;17.00;66.20;;;;;;4974546;28;20055;-82
2023/06/08 08:59:37;;;;;;;8.32;3.72;;;17.10;66.40;;;;;;4972289;28;20130;-82
2023/06/08 09:02:05;;;;;;;9.60;3.58;;;17.10;66.40;;;;;;4977480;28;20532;-80
2023/06/08 09:04:34;;;;;;;10.53;4.27;;;17.20;66.40;;;;;;4973896;28;20057;-82
2023/06/08 09:07:01;;;;;;;10.75;3.45;;;17.20;66.70;;;;;;4978052;28;20848;-81
2023/06/08 09:09:28;;;;;;;46.75;7.05;;;17.30;66.60;;;;;;4966994;28;20070;-81
2023/06/08 09:11:59;;;;;;;17.25;4.13;;;17.40;66.40;;;;;;4966783;28;20054;-83
2023/06/08 09:14:27;;;;;;;10.85;3.80;;;17.40;66.20;;;;;;4967560;28;20087;-80
2023/06/08 09:16:55;;;;;;;9.20;3.97;;;17.50;66.10;;;;;;4950350;28;20054;-80
2023/06/08 09:19:23;;;;;;;10.43;3.22;;;17.50;66.00;;;;;;4999488;28;20271;-80
2023/06/08 09:21:52;;;;;;;9.88;3.65;;;17.50;65.90;;;;;;4966949;28;20059;-80
2023/06/08 09:24:22;;;;;;;8.98;3.97;;;17.60;66.00;;;;;;4983600;28;20051;-80
2023/06/08 09:26:51;;;;;;;10.25;3.72;;;17.70;65.90;;;;;;4966353;28;20107;-80
2023/06/08 09:29:32;;;;;;;11.80;3.90;;;17.80;65.60;;;;;;4966067;28;20126;-80
2023/06/08 09:32:00;;;;;;;10.73;3.65;;;17.80;65.40;;;;;;4962215;28;20630;-80
2023/06/08 09:34:29;;;;;;;10.70;3.63;;;17.90;65.50;;;;;;4949417;28;20052;-81
2023/06/08 09:37:10;;;;;;;10.43;3.97;;;18.00;65.70;;;;;;4967292;28;20174;-80
2023/06/08 09:39:40;;;;;;;12.32;3.80;;;18.00;65.40;;;;;;4966467;28;20206;-81
2023/06/08 09:42:08;;;;;;;10.57;4.00;;;18.10;65.30;;;;;;4969061;28;20488;-81
2023/06/08 09:44:36;;;;;;;10.70;3.70;;;18.20;65.50;;;;;;4967327;28;20267;-80
2023/06/08 09:47:21;;;;;;;10.35;3.72;;;18.30;65.50;;;;;;4967797;28;20525;-80
2023/06/08 09:49:50;;;;;;;12.82;3.88;;;18.30;65.50;;;;;;4969227;28;20059;-80
2023/06/08 09:52:20;;;;;;;12.18;3.78;;;18.40;65.20;;;;;;4967426;28;20054;-81
2023/06/08 09:54:48;;;;;;;10.37;3.70;;;18.50;64.70;;;;;;4968360;28;20069;-82
2023/06/08 09:57:16;;;;;;;10.65;3.58;;;18.50;64.70;;;;;;4966723;28;20770;-84
2023/06/08 09:59:56;;;;;;;7.70;3.33;;;18.60;64.80;;;;;;4969061;28;20077;-84
2023/06/08 10:02:30;;;;;;;8.38;3.40;;;18.70;64.50;;;;;;4953986;28;20055;-83
2023/06/08 10:05:03;;;;;;;10.40;3.50;;;18.80;64.60;;;;;;4986555;28;20062;-83
2023/06/08 10:07:35;;;;;;;7.83;3.40;;;18.90;64.50;;;;;;4968928;28;20610;-83
2023/06/08 10:10:06;;;;;;;7.05;3.25;;;18.90;63.90;;;;;;4968487;28;20367;-84
2023/06/08 10:12:34;;;;;;;10.77;3.63;;;19.00;63.60;;;;;;4966096;28;20082;-83
2023/06/08 10:15:02;;;;;;;11.43;4.10;;;19.10;63.40;;;;;;4944630;28;20051;-82
2023/06/08 10:17:30;;;;;;;10.68;3.78;;;19.10;63.30;;;;;;4951775;28;20061;-84
2023/06/08 10:19:58;;;;;;;12.03;3.30;;;19.20;63.00;;;;;;4967085;28;20143;-83
2023/06/08 10:22:26;;;;;;;9.35;3.38;;;19.30;62.90;;;;;;4966370;28;21231;-82
2023/06/08 10:24:56;;;;;;;9.43;3.20;;;19.30;62.30;;;;;;4967222;28;20536;-82
2023/06/08 10:27:32;;;;;;;8.05;3.40;;;19.40;62.10;;;;;;4971473;28;20043;-83
2023/06/08 10:30:02;;;;;;;73.18;8.70;;;19.50;61.80;;;;;;4968291;28;20062;-82
2023/06/08 10:32:31;;;;;;;9.20;3.80;;;19.50;61.60;;;;;;4968078;28;20143;-83
2023/06/08 10:34:59;;;;;;;11.15;3.85;;;19.70;61.00;;;;;;4978423;28;20326;-83
2023/06/08 10:37:28;;;;;;;11.43;3.80;;;19.70;61.40;;;;;;4962282;28;20086;-80
2023/06/08 10:39:58;;;;;;;10.10;3.65;;;19.70;61.40;;;;;;4971442;28;20071;-81
2023/06/08 10:42:25;;;;;;;10.95;3.88;;;19.90;60.90;;;;;;4967989;28;20044;-80
2023/06/08 10:44:57;;;;;;;10.83;3.67;;;19.90;60.70;;;;;;4983456;28;20063;-81
2023/06/08 10:47:25;;;;;;;11.82;3.35;;;20.00;60.40;;;;;;4968148;28;20283;-80
2023/06/08 10:49:58;;;;;;;11.65;4.00;;;20.00;60.30;;;;;;4969095;28;20055;-80
2023/06/08 10:52:26;;;;;;;10.20;4.15;;;20.10;60.40;;;;;;4994772;28;20562;-80
2023/06/08 10:54:58;;;;;;;10.27;3.85;;;20.20;60.20;;;;;;4967976;28;20129;-79
2023/06/08 10:57:36;;;;;;;10.97;4.30;;;20.30;60.30;;;;;;4967291;28;20135;-81
2023/06/08 11:00:46;;;;;;;9.25;3.70;;;20.30;60.50;;;;;;4969522;28;20310;-81
2023/06/08 11:03:21;;;;;;;12.32;4.00;;;20.50;60.70;;;;;;4967791;28;20168;-80
2023/06/08 11:05:54;;;;;;;10.07;3.80;;;20.50;60.60;;;;;;4968144;28;21023;-80
2023/06/08 11:08:21;;;;;;;9.88;3.95;;;20.50;60.40;;;;;;4967550;28;20058;-81
2023/06/08 11:10:54;;;;;;;9.80;3.90;;;20.60;60.30;;;;;;4984437;28;20066;-80
2023/06/08 11:13:23;;;;;;;12.82;3.72;;;20.70;60.00;;;;;;4993900;28;20287;-80
2023/06/08 11:15:50;;;;;;;9.48;3.90;;;20.80;59.60;;;;;;4957784;28;20066;-81
2023/06/08 11:18:19;;;;;;;8.98;3.88;;;20.90;59.90;;;;;;4962667;28;20055;-83
2023/06/08 11:20:47;;;;;;;14.43;4.22;;;20.90;59.70;;;;;;4974460;28;20131;-82
2023/06/08 11:23:14;;;;;;;11.23;4.40;;;21.00;59.10;;;;;;4967631;28;20059;-82
2023/06/08 11:25:44;;;;;;;9.05;3.85;;;21.10;58.70;;;;;;4951814;28;20244;-84
2023/06/08 11:28:13;;;;;;;10.10;3.78;;;21.10;58.70;;;;;;4971011;28;20055;-84
2023/06/08 11:30:40;;;;;;;10.77;4.05;;;21.20;59.00;;;;;;4981419;28;20051;-84
2023/06/08 11:33:09;;;;;;;9.25;3.47;;;21.30;59.10;;;;;;4968392;28;20056;-85
2023/06/08 11:35:37;;;;;;;9.07;3.70;;;21.40;59.00;;;;;;4968351;28;20102;-83
2023/06/08 11:38:05;;;;;;;10.02;3.75;;;21.50;58.90;;;;;;4962857;28;21080;-83
2023/06/08 11:40:34;;;;;;;9.45;3.53;;;21.50;59.10;;;;;;4968667;28;20110;-85
2023/06/08 11:43:01;;;;;;;11.95;4.22;;;21.60;58.60;;;;;;4973178;28;20052;-84
2023/06/08 11:45:30;;;;;;;15.48;4.07;;;21.70;58.50;;;;;;4981088;28;20044;-83
2023/06/08 11:47:58;;;;;;;11.80;3.83;;;21.70;58.60;;;;;;4969483;28;20051;-82
2023/06/08 11:50:25;;;;;;;10.13;3.53;;;21.90;58.50;;;;;;5000587;28;20283;-83
2023/06/08 11:52:52;;;;;;;9.18;3.95;;;21.90;58.20;;;;;;4998687;28;20083;-84
2023/06/08 11:55:22;;;;;;;9.13;3.63;;;21.90;58.20;;;;;;4952826;28;20061;-84
2023/06/08 11:57:54;;;;;;;29.23;5.15;;;22.00;58.00;;;;;;4966072;28;20055;-83
2023/06/08 12:00:24;;;;;;;10.67;3.77;;;22.10;57.80;;;;;;4966825;28;20079;-82
2023/06/08 12:02:53;;;;;;;11.20;4.20;;;22.20;57.90;;;;;;4966957;28;20284;-82
2023/06/08 12:05:24;;;;;;;10.15;3.33;;;22.30;57.90;;;;;;5001402;28;20231;-83
2023/06/08 12:07:56;;;;;;;11.82;3.72;;;22.30;57.90;;;;;;4965255;28;20050;-84
2023/06/08 12:10:24;;;;;;;6.78;3.30;;;22.50;57.50;;;;;;4966860;28;20051;-84
2023/06/08 12:12:52;;;;;;;10.33;3.73;;;22.50;57.40;;;;;;4964152;28;20051;-81
2023/06/08 12:15:19;;;;;;;9.30;3.70;;;22.60;57.10;;;;;;4958406;28;20867;-81
2023/06/08 12:17:47;;;;;;;10.38;3.63;;;22.60;57.10;;;;;;4977627;28;20532;-85
2023/06/08 12:20:18;;;;;;;7.78;3.40;;;22.70;56.80;;;;;;4967730;28;20773;-83
2023/06/08 12:22:45;;;;;;;9.98;3.45;;;22.80;56.80;;;;;;4966845;28;20493;-82
2023/06/08 12:25:12;;;;;;;11.57;4.20;;;22.90;57.10;;;;;;4957358;28;20051;-82
2023/06/08 12:27:40;;;;;;;9.65;3.72;;;22.90;56.50;;;;;;4957246;28;21055;-81
2023/06/08 12:30:09;;;;;;;11.75;3.72;;;23.00;56.10;;;;;;4971888;28;20047;-82
2023/06/08 12:32:36;;;;;;;15.13;4.75;;;23.10;55.80;;;;;;4958540;28;20052;-82
2023/06/08 12:35:05;;;;;;;9.00;3.30;;;23.10;55.70;;;;;;4961039;28;20043;-81
2023/06/08 12:37:33;;;;;;;11.83;4.30;;;23.20;55.40;;;;;;4970900;28;20047;-81
2023/06/08 12:40:00;;;;;;;10.65;3.67;;;23.30;55.70;;;;;;4966626;28;20275;-81
2023/06/08 12:42:28;;;;;;;8.07;3.55;;;23.30;55.40;;;;;;4983189;28;20055;-81
2023/06/08 12:44:55;;;;;;;17.67;4.75;;;23.40;55.60;;;;;;4984136;28;20139;-81
2023/06/08 12:47:22;;;;;;;9.38;3.50;;;23.50;55.60;;;;;;4967039;28;20058;-82